Time;durP1;ratioP1;P1;durP2;ratioP2;P2;SDS_P1;SDS_P2;PMS_P1;PMS_P2;Temp;Humidity;BMP_temperature;BMP_pressure;BME280_temperature;BME280_humidity;BME280_pressure;Samples;Min_cycle;Max_cycle;Signal;HPM_P1;HPM_P2
2022/05/17 00:00:58;;;;;;;31.58;14.93;;;;;;;28.71;46.28;97291.78;4854470;29;20053;-68
2022/05/17 00:03:47;;;;;;;40.13;15.40;;;;;;;28.65;47.09;97292.56;4876102;29;20064;-68
2022/05/17 00:06:29;;;;;;;43.85;18.13;;;;;;;28.61;47.33;97301.91;4853029;29;20057;-68
2022/05/17 00:09:18;;;;;;;33.60;17.05;;;;;;;28.57;47.10;97304.16;4853869;29;20141;-68
2022/05/17 00:12:01;;;;;;;44.17;17.65;;;;;;;28.52;49.66;97314.50;4854611;29;20045;-68
2022/05/17 00:14:49;;;;;;;40.00;18.67;;;;;;;28.33;46.93;97317.81;4853661;29;20064;-68
2022/05/17 00:17:32;;;;;;;37.10;18.73;;;;;;;28.37;47.33;97316.41;4853786;29;20393;-69
2022/05/17 00:20:23;;;;;;;39.10;17.02;;;;;;;28.33;47.31;97323.94;4852514;29;20061;-68
2022/05/17 00:23:07;;;;;;;40.08;17.13;;;;;;;28.33;47.30;97341.66;4851110;29;20133;-67
2022/05/17 00:25:57;;;;;;;35.55;15.88;;;;;;;28.36;49.13;97341.25;4884542;29;20057;-68
2022/05/17 00:28:42;;;;;;;33.45;15.73;;;;;;;28.32;47.48;97338.19;4854932;29;20481;-68
2022/05/17 00:31:31;;;;;;;36.75;16.15;;;;;;;28.32;47.71;97335.53;4853828;29;20566;-67
2022/05/17 00:34:14;;;;;;;33.55;14.60;;;;;;;28.28;48.89;97350.16;4854375;29;20046;-67
2022/05/17 00:37:02;;;;;;;31.20;15.85;;;;;;;28.24;48.54;97348.09;4855487;29;20057;-68
2022/05/17 00:39:44;;;;;;;28.15;15.23;;;;;;;28.16;48.51;97354.34;4859021;29;20061;-67
2022/05/17 00:42:34;;;;;;;38.30;15.48;;;;;;;28.20;48.28;97352.94;4855238;29;20053;-66
2022/05/17 00:45:16;;;;;;;33.60;15.43;;;;;;;28.28;48.34;97354.63;4857713;29;20053;-67
2022/05/17 00:48:08;;;;;;;44.85;15.15;;;;;;;28.29;51.64;97349.16;4859940;29;20132;-67
2022/05/17 00:50:53;;;;;;;35.03;15.55;;;;;;;28.31;48.62;97364.88;4857472;29;20136;-67
2022/05/17 00:53:44;;;;;;;47.88;15.98;;;;;;;28.25;50.37;97368.28;4867481;29;20127;-67
2022/05/17 00:56:27;;;;;;;34.95;16.90;;;;;;;28.24;49.32;97364.81;4874727;29;20073;-67
2022/05/17 00:59:17;;;;;;;38.17;16.20;;;;;;;28.25;50.79;97369.09;4878318;29;20455;-67
2022/05/17 01:02:00;;;;;;;36.47;17.98;;;;;;;28.27;51.09;97374.19;4872044;29;20377;-67
2022/05/17 01:04:48;;;;;;;53.17;18.42;;;;;;;28.29;49.60;97382.78;4855351;29;20076;-67
2022/05/17 01:07:46;;;;;;;42.72;18.00;;;;;;;28.32;48.58;97385.88;4869990;29;20053;-68
2022/05/17 01:10:37;;;;;;;39.80;18.63;;;;;;;28.18;48.86;97384.09;4871817;29;20117;-67
2022/05/17 01:16:29;;;;;;;45.20;18.65;;;;;;;28.39;49.20;97378.81;4871418;29;20069;-67
2022/05/17 01:19:13;;;;;;;46.97;17.70;;;;;;;28.44;48.88;97392.31;4868055;29;20053;-66
2022/05/17 01:22:01;;;;;;;38.17;17.45;;;;;;;28.38;49.90;97387.75;4871688;29;20133;-67
2022/05/17 01:24:44;;;;;;;36.65;16.02;;;;;;;28.49;50.18;97391.75;4869380;29;20048;-67
2022/05/17 01:28:00;;;;;;;44.08;16.67;;;;;;;28.54;48.44;97394.63;4875824;29;20052;-67
2022/05/17 01:30:42;;;;;;;45.58;17.15;;;;;;;28.53;49.86;97401.75;4854019;29;20053;-67
2022/05/17 01:33:32;;;;;;;37.20;15.85;;;;;;;28.60;51.26;97401.00;4853577;29;20110;-66
2022/05/17 01:36:23;;;;;;;38.58;14.60;;;;;;;28.70;51.55;97396.19;4852945;29;20113;-67
2022/05/17 01:39:12;;;;;;;32.95;13.63;;;;;;;28.78;50.48;97404.03;4852717;29;20602;-66
2022/05/17 01:41:54;;;;;;;37.63;14.23;;;;;;;28.84;49.88;97408.56;4873380;29;20131;-67
2022/05/17 01:44:44;;;;;;;26.95;12.52;;;;;;;28.75;51.23;97414.97;4871083;29;20064;-67
2022/05/17 01:47:26;;;;;;;34.38;12.50;;;;;;;28.94;48.67;97424.97;4885640;29;20089;-67
2022/05/17 01:50:16;;;;;;;31.98;11.90;;;;;;;28.97;48.66;97432.56;4871794;29;20045;-68
2022/05/17 01:52:58;;;;;;;27.40;11.25;;;;;;;29.23;49.19;97435.38;4876947;29;20045;-67
2022/05/17 01:55:53;;;;;;;24.10;10.52;;;;;;;29.27;50.98;97436.63;4890778;29;20049;-67
2022/05/17 01:58:29;;;;;;;30.98;11.02;;;;;;;29.55;50.83;97441.09;4890258;29;20052;-67
2022/05/17 02:01:23;;;;;;;34.75;10.98;;;;;;;29.69;50.58;97446.28;4890223;29;20060;-67
2022/05/17 02:04:13;;;;;;;31.35;11.27;;;;;;;29.93;47.36;97442.31;4890399;29;20048;-67
2022/05/17 02:07:03;;;;;;;33.33;11.15;;;;;;;30.02;47.02;97450.94;4890581;29;20064;-67
2022/05/17 02:09:47;;;;;;;34.08;11.23;;;;;;;30.22;46.04;97457.16;4889376;29;20392;-67
2022/05/17 02:12:36;;;;;;;29.83;11.75;;;;;;;30.49;47.01;97458.03;4889978;29;20072;-67
2022/05/17 02:15:18;;;;;;;31.00;10.48;;;;;;;30.53;46.07;97464.63;4872100;29;20438;-68
2022/05/17 02:18:08;;;;;;;31.75;10.55;;;;;;;30.76;46.71;97465.06;4870957;29;20615;-67
2022/05/17 02:20:57;;;;;;;24.35;10.95;;;;;;;30.98;45.94;97456.88;4871540;29;20132;-68
2022/05/17 02:23:39;;;;;;;30.15;10.65;;;;;;;31.08;46.08;97449.34;4870225;29;20053;-67
2022/05/17 02:26:34;;;;;;;42.38;11.40;;;;;;;31.21;46.07;97456.50;4871094;29;20053;-68
2022/05/17 02:29:10;;;;;;;31.13;10.30;;;;;;;31.43;45.86;97461.38;4870784;29;20053;-68
2022/05/17 02:31:59;;;;;;;34.42;10.85;;;;;;;31.38;45.13;97466.50;4871040;29;20784;-68
2022/05/17 02:34:42;;;;;;;41.43;10.27;;;;;;;31.39;44.97;97464.66;4870875;29;20410;-69
2022/05/17 02:37:31;;;;;;;40.75;12.13;;;;;;;31.58;46.38;97471.78;4871190;29;20092;-68
2022/05/17 02:40:14;;;;;;;35.15;10.23;;;;;;;31.79;45.13;97476.06;4873593;29;20045;-68
2022/05/17 02:43:11;;;;;;;28.75;9.05;;;;;;;31.85;46.18;97480.53;4889577;29;20116;-68
2022/05/17 02:45:47;;;;;;;29.83;9.07;;;;;;;31.78;44.97;97475.22;4888951;29;20059;-68
2022/05/17 02:48:35;;;;;;;28.27;9.18;;;;;;;31.67;44.84;97481.22;4888913;29;20059;-67
2022/05/17 02:51:26;;;;;;;32.08;11.65;;;;;;;31.84;43.84;97486.91;4889528;29;20754;-67
2022/05/17 02:54:15;;;;;;;46.33;12.07;;;;;;;32.25;44.83;97490.03;4889733;29;20416;-68
2022/05/17 02:57:12;;;;;;;22.88;9.32;;;;;;;32.42;42.68;97487.69;4892798;29;20127;-67
2022/05/17 02:59:48;;;;;;;36.42;9.95;;;;;;;32.61;44.86;97489.44;4895838;29;20070;-68
2022/05/17 03:02:37;;;;;;;27.15;9.18;;;;;;;32.99;43.61;97493.94;4895259;29;20064;-68
2022/05/17 03:05:27;;;;;;;28.08;9.05;;;;;;;32.70;42.67;97495.38;4895360;29;20115;-67
2022/05/17 03:08:09;;;;;;;26.95;8.63;;;;;;;33.09;44.93;97499.59;4895639;29;20048;-67
2022/05/17 03:10:58;;;;;;;21.85;10.55;;;;;;;33.38;41.19;97503.47;4895293;29;20119;-67
2022/05/17 03:13:53;;;;;;;31.77;8.65;;;;;;;33.66;40.84;97506.50;4895575;29;20048;-67
2022/05/17 03:16:33;;;;;;;27.08;9.10;;;;;;;33.05;42.77;97504.53;4884839;29;20055;-67
2022/05/17 03:19:29;;;;;;;23.40;8.27;;;;;;;33.31;42.21;97502.72;4875335;29;20644;-67
2022/05/17 03:22:05;;;;;;;18.58;8.15;;;;;;;33.44;41.51;97502.63;4890871;29;20049;-67
2022/05/17 03:24:55;;;;;;;29.70;8.55;;;;;;;33.93;42.54;97500.88;4877047;29;20045;-67
2022/05/17 03:28:04;;;;;;;23.10;8.90;;;;;;;33.65;40.40;97504.88;4892218;29;20044;-68
2022/05/17 03:30:47;;;;;;;;;;;;;;;33.62;41.54;97510.66;4899958;29;20072;-67
2022/05/17 03:33:35;;;;;;;19.92;7.28;;;;;;;33.76;39.53;97514.03;4894321;29;19923;-67
2022/05/17 03:36:24;;;;;;;27.13;8.23;;;;;;;34.02;39.93;97516.41;4896231;29;20790;-68
2022/05/17 03:39:06;;;;;;;23.15;8.10;;;;;;;34.16;41.25;97507.19;4896165;29;20111;-67
2022/05/17 03:42:02;;;;;;;21.88;7.47;;;;;;;34.29;38.72;97511.59;4890506;29;20128;-68
2022/05/17 03:44:39;;;;;;;18.70;9.10;;;;;;;34.21;39.26;97513.72;4895277;29;20151;-67
2022/05/17 03:47:28;;;;;;;19.05;8.23;;;;;;;34.08;39.07;97514.72;4894886;29;20136;-67
2022/05/17 03:50:20;;;;;;;29.40;8.82;;;;;;;34.11;40.74;97514.25;4893534;29;20048;-67
2022/05/17 03:53:10;;;;;;;22.35;8.55;;;;;;;34.35;43.07;97517.88;4889135;29;20060;-68
2022/05/17 03:56:05;;;;;;;24.33;8.50;;;;;;;34.51;39.57;97525.28;4895423;29;20064;-68
2022/05/17 03:58:54;;;;;;;32.05;9.18;;;;;;;34.70;38.62;97518.03;4895049;29;20060;-68
2022/05/17 04:01:44;;;;;;;22.83;7.57;;;;;;;34.94;38.68;97514.41;4855109;29;20399;-68
2022/05/17 04:04:27;;;;;;;19.58;7.95;;;;;;;34.96;39.15;97517.69;4872039;29;20065;-68
2022/05/17 04:07:16;;;;;;;30.35;8.02;;;;;;;34.49;38.83;97522.84;4876825;29;20080;-68
2022/05/17 04:09:58;;;;;;;31.57;8.17;;;;;;;34.87;41.51;97519.06;4869673;29;20053;-68
2022/05/17 04:12:48;;;;;;;27.98;8.63;;;;;;;34.64;40.87;97524.31;4867704;29;20068;-68
2022/05/17 04:15:37;;;;;;;30.92;8.60;;;;;;;35.03;40.24;97518.41;4871966;29;20056;-68
2022/05/17 04:18:19;;;;;;;26.58;8.35;;;;;;;35.20;39.99;97524.69;4868738;29;20065;-67
2022/05/17 04:21:08;;;;;;;27.17;8.60;;;;;;;35.48;37.99;97521.38;4869686;29;20044;-68
2022/05/17 04:23:50;;;;;;;34.58;9.77;;;;;;;35.61;39.07;97520.31;4869462;29;20049;-68
2022/05/17 04:26:39;;;;;;;35.58;8.13;;;;;;;35.80;36.66;97527.22;4852461;29;20072;-69
2022/05/17 04:29:21;;;;;;;23.88;8.57;;;;;;;36.10;39.17;97519.00;4872734;29;20057;-68
2022/05/17 04:32:10;;;;;;;24.63;8.38;;;;;;;35.68;38.04;97527.19;4873772;29;20064;-67
2022/05/17 04:35:00;;;;;;;30.98;9.80;;;;;;;35.69;39.93;97528.00;4869563;29;20424;-68
2022/05/17 04:37:42;;;;;;;27.23;8.20;;;;;;;36.08;38.00;97522.97;4870673;29;20048;-67
2022/05/17 04:40:31;;;;;;;27.17;8.65;;;;;;;36.34;37.29;97522.44;4875221;29;20063;-68
2022/05/17 04:43:13;;;;;;;27.00;9.07;;;;;;;35.71;38.39;97519.72;4873232;29;20041;-69
2022/05/17 04:46:03;;;;;;;30.17;9.27;;;;;;;36.07;38.33;97530.22;4885848;29;20121;-68
2022/05/17 04:48:53;;;;;;;37.55;9.50;;;;;;;35.47;36.84;97530.47;4869892;29;20045;-69
2022/05/17 04:51:35;;;;;;;36.55;8.80;;;;;;;35.15;37.06;97535.28;4873598;29;20056;-68
2022/05/17 04:54:27;;;;;;;31.23;9.30;;;;;;;36.04;36.10;97531.50;4881987;29;20060;-68
2022/05/17 04:57:10;;;;;;;41.08;10.00;;;;;;;36.48;35.99;97531.84;4864140;29;20053;-68
2022/05/17 04:59:59;;;;;;;32.05;9.80;;;;;;;36.68;37.74;97534.13;4862819;29;20633;-69
2022/05/17 05:02:41;;;;;;;23.70;9.10;;;;;;;36.68;39.20;97534.13;4857615;29;20121;-69
2022/05/17 05:05:31;;;;;;;25.25;9.88;;;;;;;37.01;39.67;97541.44;4864182;29;20053;-69
2022/05/17 05:08:22;;;;;;;23.70;9.27;;;;;;;36.45;37.86;97532.34;4884667;29;20056;-68
2022/05/17 05:11:08;;;;;;;23.52;8.80;;;;;;;36.62;39.36;97530.53;4851234;29;20057;-69
2022/05/17 05:13:57;;;;;;;29.85;9.75;;;;;;;36.72;38.77;97530.72;4855669;29;20101;-69
2022/05/17 05:16:46;;;;;;;27.58;9.48;;;;;;;36.76;37.57;97529.19;4858768;29;20084;-66
2022/05/17 05:19:28;;;;;;;34.58;10.40;;;;;;;36.47;35.30;97532.94;4833681;29;20121;-66
2022/05/17 05:22:17;;;;;;;31.17;10.00;;;;;;;37.07;38.26;97527.84;4863290;29;20048;-67
2022/05/17 05:24:59;;;;;;;25.48;9.10;;;;;;;36.90;35.28;97526.19;4845100;29;20049;-66
2022/05/17 05:27:48;;;;;;;28.55;9.13;;;;;;;36.40;35.31;97519.63;4845861;29;20077;-66
2022/05/17 05:30:30;;;;;;;26.27;9.10;;;;;;;36.97;37.00;97524.16;4860583;29;20048;-66
2022/05/17 05:33:19;;;;;;;29.40;11.52;;;;;;;36.95;36.28;97526.31;4863120;29;20072;-66
2022/05/17 05:36:01;;;;;;;35.78;10.77;;;;;;;36.82;35.52;97522.03;4868653;29;20075;-66
2022/05/17 05:38:56;;;;;;;31.25;9.75;;;;;;;37.31;40.23;97508.91;4860460;29;20473;-68
2022/05/17 05:41:32;;;;;;;28.52;9.38;;;;;;;37.40;34.54;97519.00;4862639;29;20054;-67
2022/05/17 05:44:21;;;;;;;34.72;10.35;;;;;;;37.22;35.86;97513.06;4848240;29;20045;-68
2022/05/17 05:47:03;;;;;;;38.65;10.35;;;;;;;37.50;36.63;97518.34;4853804;29;20270;-68
2022/05/17 05:49:53;;;;;;;30.50;10.15;;;;;;;37.59;35.24;97508.84;4859844;29;20136;-67
2022/05/17 05:52:35;;;;;;;57.30;12.38;;;;;;;37.28;36.01;97510.19;4856473;29;20056;-67
2022/05/17 05:55:31;;;;;;;30.25;10.32;;;;;;;37.20;36.14;97507.13;4856238;29;20124;-68
2022/05/17 05:58:20;;;;;;;31.10;9.75;;;;;;;36.85;35.69;97518.06;4876224;29;20071;-67
2022/05/17 06:01:10;;;;;;;33.72;9.80;;;;;;;37.43;35.80;97517.72;4890146;29;20108;-67
2022/05/17 06:03:59;;;;;;;26.38;9.85;;;;;;;36.97;37.09;97514.25;4903984;29;20048;-68
2022/05/17 06:06:48;;;;;;;27.58;10.35;;;;;;;37.47;35.61;97511.56;4873858;29;20052;-68
2022/05/17 06:09:31;;;;;;;35.47;10.52;;;;;;;37.30;32.89;97502.72;4870828;29;20072;-67
2022/05/17 06:12:19;;;;;;;38.70;11.07;;;;;;;37.49;34.91;97501.41;4878945;29;20147;-67
2022/05/17 06:15:09;;;;;;;31.40;9.90;;;;;;;37.71;35.41;97506.84;4879377;29;20762;-67
2022/05/17 06:17:51;;;;;;;;;;;;;;;37.51;34.11;97499.28;4872118;29;20609;-68
2022/05/17 06:20:41;;;;;;;28.02;9.63;;;;;;;37.40;34.94;97497.50;4871795;29;20316;-67
2022/05/17 06:23:23;;;;;;;;;;;;;;;37.87;34.62;97499.78;4875388;29;20045;-68
2022/05/17 06:26:12;;;;;;;31.15;10.07;;;;;;;37.80;35.55;97491.09;4873295;29;19931;-67
2022/05/17 06:29:02;;;;;;;38.20;11.32;;;;;;;37.59;35.80;97483.78;4873184;29;20045;-67
2022/05/17 06:31:57;;;;;;;35.80;10.45;;;;;;;37.76;34.66;97485.38;4871255;29;20048;-67
2022/05/17 06:34:46;;;;;;;35.42;11.00;;;;;;;37.65;35.33;97477.44;4886387;29;20398;-67
2022/05/17 06:37:28;;;;;;;36.60;12.27;;;;;;;37.55;34.97;97472.72;4883374;29;20456;-68
2022/05/17 06:40:17;;;;;;;33.30;9.27;;;;;;;37.37;33.34;97471.09;4889758;29;20159;-68
2022/05/17 06:42:59;;;;;;;46.10;11.88;;;;;;;37.46;32.26;97466.94;4904608;29;20052;-67
2022/05/17 06:45:49;;;;;;;37.33;10.75;;;;;;;37.82;35.22;97456.69;4890482;29;20123;-68
2022/05/17 06:48:31;;;;;;;;;;;;;;;37.77;32.97;97470.88;4890184;29;20552;-68
2022/05/17 06:51:20;;;;;;;34.28;11.32;;;;;;;38.04;32.85;97454.81;4870633;29;20308;-68
2022/05/17 06:54:02;;;;;;;28.67;9.75;;;;;;;38.04;35.11;97452.13;4884241;29;20048;-68
2022/05/17 06:56:51;;;;;;;35.15;9.13;;;;;;;37.96;32.54;97443.69;4888798;29;20040;-68
2022/05/17 06:59:42;;;;;;;33.50;10.32;;;;;;;38.02;33.55;97434.59;4889845;29;20064;-68
2022/05/17 07:02:24;;;;;;;37.38;9.63;;;;;;;37.82;33.23;97430.63;4889924;29;20076;-68
2022/05/17 07:05:14;;;;;;;30.85;11.27;;;;;;;38.03;33.00;97431.66;4889923;29;20052;-68
2022/05/17 07:08:05;;;;;;;36.78;11.48;;;;;;;38.00;32.96;97432.16;4890012;29;20115;-68
2022/05/17 07:14:00;;;;;;;30.23;8.75;;;;;;;38.05;34.30;97424.19;4863605;29;20135;-68
2022/05/17 07:16:49;;;;;;;37.30;8.93;;;;;;;37.68;33.40;97412.41;4873690;29;20049;-68
2022/05/17 07:19:34;;;;;;;38.67;9.38;;;;;;;37.57;31.91;97421.38;4870442;29;20059;-68
2022/05/17 07:22:23;;;;;;;32.45;9.75;;;;;;;37.90;36.54;97405.97;4870730;29;20100;-68
2022/05/17 07:25:12;;;;;;;40.22;10.55;;;;;;;37.98;33.31;97401.22;4870762;29;20132;-68
2022/05/17 07:28:01;;;;;;;44.50;10.32;;;;;;;37.79;34.27;97406.91;4871059;29;20513;-69
2022/05/17 07:30:46;;;;;;;30.90;8.90;;;;;;;37.83;32.11;97404.53;4869333;29;20140;-68
2022/05/17 07:33:36;;;;;;;34.20;9.48;;;;;;;37.89;32.04;97398.16;4870302;29;20059;-68
2022/05/17 07:36:18;;;;;;;39.63;9.40;;;;;;;38.21;30.87;97392.88;4870785;29;20053;-68
2022/05/17 07:39:08;;;;;;;26.30;8.43;;;;;;;38.10;32.11;97391.94;4854647;29;20112;-67
2022/05/17 07:41:50;;;;;;;;;;;;;;;38.12;30.48;97392.50;4887226;29;20051;-67
2022/05/17 07:44:39;;;;;;;38.20;9.43;;;;;;;38.24;32.51;97390.47;4891455;29;19939;-68
2022/05/17 07:47:29;;;;;;;27.38;8.30;;;;;;;38.29;33.72;97377.06;4886957;29;20061;-67
2022/05/17 07:50:19;;;;;;;34.50;8.45;;;;;;;38.41;29.96;97384.16;4874320;29;20064;-67
2022/05/17 07:53:07;;;;;;;;;;;;;;;38.37;29.55;97383.88;4878958;29;20053;-67
2022/05/17 07:55:56;;;;;;;28.63;8.40;;;;;;;38.41;32.29;97373.38;4868583;29;20356;-67
2022/05/17 07:58:52;;;;;;;36.08;9.63;;;;;;;38.04;29.80;97378.66;4872308;29;20109;-67
2022/05/17 08:01:41;;;;;;;34.83;8.50;;;;;;;38.21;29.89;97382.91;4885759;29;20052;-68
2022/05/17 08:04:30;;;;;;;33.80;9.38;;;;;;;38.19;29.69;97365.38;4892905;29;20123;-67
2022/05/17 08:07:19;;;;;;;35.92;9.15;;;;;;;38.13;30.06;97364.53;4893283;29;20600;-67
2022/05/17 08:10:03;;;;;;;49.78;10.52;;;;;;;38.22;29.91;97354.94;4893486;29;20357;-67
2022/05/17 08:12:52;;;;;;;33.70;8.98;;;;;;;38.27;27.60;97360.34;4893442;29;20115;-67
2022/05/17 08:15:42;;;;;;;34.67;9.40;;;;;;;38.31;28.98;97354.47;4893616;29;20060;-67
2022/05/17 08:18:24;;;;;;;25.33;7.87;;;;;;;38.46;29.44;97349.22;4891430;29;20052;-67
2022/05/17 08:21:13;;;;;;;36.35;8.75;;;;;;;38.55;31.09;97342.31;4892211;29;20127;-67
2022/05/17 08:23:55;;;;;;;37.97;8.20;;;;;;;38.59;29.00;97344.22;4893490;29;20055;-67
2022/05/17 08:29:45;;;;;;;33.97;8.48;;;;;;;38.54;32.29;97327.25;4893009;29;20069;-67
2022/05/17 08:35:46;;;;;;;27.95;8.10;;;;;;;38.33;30.46;97318.13;4876009;29;20063;-67
2022/05/17 08:38:48;;;;;;;36.40;8.25;;;;;;;38.27;28.95;97313.78;4892570;29;20052;-67
2022/05/17 08:42:08;;;;;;;38.08;9.20;;;;;;;37.99;29.94;97300.59;4903770;29;20548;-68
2022/05/17 08:45:03;;;;;;;42.08;9.00;;;;;;;38.03;29.91;97297.13;4892715;29;20104;-66
2022/05/17 08:47:53;;;;;;;40.47;8.32;;;;;;;38.03;30.09;97297.13;4892659;29;20049;-68
2022/05/17 08:50:39;;;;;;;42.58;8.73;;;;;;;38.17;29.15;97292.97;4892731;29;20147;-68
2022/05/17 08:53:28;;;;;;;35.63;8.57;;;;;;;37.91;29.57;97291.13;4889957;29;20528;-67
2022/05/17 08:56:12;;;;;;;28.65;8.02;;;;;;;38.01;30.98;97287.69;4875927;29;20079;-67
2022/05/17 08:59:11;;;;;;;33.17;8.07;;;;;;;37.96;28.51;97282.28;4872450;29;20065;-67
2022/05/17 09:02:12;;;;;;;33.75;8.15;;;;;;;37.82;30.06;97281.88;4874115;29;20053;-67
2022/05/17 09:05:13;;;;;;;39.60;7.70;;;;;;;37.84;28.90;97277.03;4872367;29;20040;-66
2022/05/17 09:12:52;;;;;;;34.90;7.40;;;;;;;37.78;26.12;97273.50;4886588;29;20132;-68
2022/05/17 09:15:42;;;;;;;40.35;8.25;;;;;;;37.71;26.84;97258.63;4873967;29;20114;-68
2022/05/17 09:18:26;;;;;;;28.95;7.03;;;;;;;37.57;31.13;97254.69;4896229;29;20476;-68
2022/05/17 09:21:31;;;;;;;27.00;6.50;;;;;;;37.39;31.42;97258.53;4902672;29;20104;-67
2022/05/17 09:24:25;;;;;;;32.75;7.55;;;;;;;37.34;30.17;97240.50;4892984;29;20409;-68
2022/05/17 09:27:22;;;;;;;44.03;8.25;;;;;;;37.40;25.83;97244.84;4891045;29;20127;-68
2022/05/17 09:30:40;;;;;;;34.05;7.03;;;;;;;37.59;26.89;97244.50;4894212;29;20071;-68
2022/05/17 09:33:23;;;;;;;38.58;7.57;;;;;;;37.48;27.90;97233.66;4890181;29;20033;-68
2022/05/17 09:36:13;;;;;;;33.85;7.68;;;;;;;37.51;28.81;97235.03;4889266;29;20060;-68
2022/05/17 09:38:55;;;;;;;30.90;7.60;;;;;;;37.67;29.65;97233.34;4891957;29;20111;-67
2022/05/17 09:41:46;;;;;;;32.03;7.55;;;;;;;37.49;31.03;97221.84;4888846;29;20044;-68
2022/05/17 09:44:56;;;;;;;37.17;8.52;;;;;;;37.29;27.74;97226.97;4888217;29;20058;-69
2022/05/17 09:47:50;;;;;;;24.00;6.65;;;;;;;37.13;31.93;97209.06;4889880;29;20144;-68
2022/05/17 09:53:50;;;;;;;36.53;9.77;;;;;;;36.96;30.40;97211.00;4888776;29;20052;-67
2022/05/17 09:56:39;;;;;;;27.58;7.20;;;;;;;36.90;31.43;97195.88;4888368;29;20049;-67
2022/05/17 09:59:28;;;;;;;25.80;6.43;;;;;;;36.84;32.55;97196.88;4886529;29;20076;-67
2022/05/17 10:02:29;;;;;;;31.67;8.18;;;;;;;36.96;29.88;97189.50;4885953;29;20051;-68
2022/05/17 10:05:28;;;;;;;26.20;8.90;;;;;;;36.92;32.37;97185.69;4881619;29;20045;-67
2022/05/17 10:08:13;;;;;;;36.35;8.25;;;;;;;37.20;31.09;97179.34;4885308;29;20445;-67
2022/05/17 10:11:18;;;;;;;43.45;9.27;;;;;;;37.11;32.33;97170.88;4885006;29;20536;-67
2022/05/17 10:14:25;;;;;;;40.72;8.40;;;;;;;36.78;35.76;97169.97;4885216;29;20082;-68
2022/05/17 10:17:28;;;;;;;26.38;9.18;;;;;;;36.66;34.45;97163.88;4886023;29;20044;-68
2022/05/17 10:20:16;;;;;;;34.65;9.02;;;;;;;36.72;34.13;97162.88;4885188;29;20076;-68
2022/05/17 10:23:22;;;;;;;30.70;8.65;;;;;;;36.49;35.28;97163.09;4888836;29;20044;-68
2022/05/17 10:26:19;;;;;;;28.92;8.20;;;;;;;36.53;33.26;97153.50;4889640;29;20068;-67
2022/05/17 10:29:11;;;;;;;40.40;8.70;;;;;;;36.49;35.05;97149.69;4890886;29;20054;-68
2022/05/17 10:32:19;;;;;;;32.10;7.82;;;;;;;36.42;34.26;97149.88;4890562;29;20120;-67
2022/05/17 10:35:47;;;;;;;33.72;8.52;;;;;;;36.55;34.34;97140.66;4877592;29;20472;-68
2022/05/17 10:38:58;;;;;;;29.35;9.20;;;;;;;36.46;34.47;97144.81;4890321;29;20535;-67
2022/05/17 10:41:47;;;;;;;35.30;8.40;;;;;;;36.41;32.24;97145.56;4890672;29;20061;-67
2022/05/17 10:44:45;;;;;;;34.35;9.32;;;;;;;36.37;35.22;97131.03;4890291;29;20686;-70
2022/05/17 10:47:49;;;;;;;40.90;8.13;;;;;;;36.50;33.82;97132.50;4890589;29;20417;-70
2022/05/17 10:50:34;;;;;;;35.55;9.10;;;;;;;36.74;31.59;97125.06;4890420;29;20049;-69
2022/05/17 10:53:35;;;;;;;31.00;8.38;;;;;;;36.46;32.20;97127.91;4889883;29;20338;-67
2022/05/17 10:56:26;;;;;;;36.35;7.60;;;;;;;36.44;33.92;97128.16;4889717;29;20053;-67
2022/05/17 10:59:15;;;;;;;32.05;7.97;;;;;;;36.39;33.12;97120.03;4890358;29;20068;-67
2022/05/17 11:02:09;;;;;;;39.42;7.70;;;;;;;36.87;26.44;97118.50;4905347;29;20150;-67
2022/05/17 11:05:08;;;;;;;39.03;9.25;;;;;;;36.94;28.37;97121.81;4908787;29;20083;-67
2022/05/17 11:08:03;;;;;;;33.05;7.90;;;;;;;36.90;29.74;97108.06;4908774;29;20036;-69
2022/05/17 11:11:14;;;;;;;37.78;8.20;;;;;;;37.20;25.36;97115.63;4906105;29;20048;-70
2022/05/17 11:14:08;;;;;;;34.83;7.10;;;;;;;37.14;28.47;97100.53;4894147;29;20096;-67
2022/05/17 11:17:02;;;;;;;34.53;6.65;;;;;;;37.15;26.48;97105.66;4889906;29;20056;-68
2022/05/17 11:20:05;;;;;;;28.55;7.43;;;;;;;37.15;27.61;97102.16;4894455;29;20107;-68
2022/05/17 11:23:36;;;;;;;35.67;7.03;;;;;;;37.04;28.38;97090.47;4892077;29;20044;-69
2022/05/17 11:26:52;;;;;;;23.35;6.82;;;;;;;36.84;30.79;97092.16;4830023;29;20384;-68
2022/05/17 11:29:44;;;;;;;36.92;8.00;;;;;;;36.68;30.37;97088.47;4892162;29;20080;-68
2022/05/17 11:32:32;;;;;;;31.92;6.75;;;;;;;36.73;26.47;97097.41;4893850;29;20478;-68
2022/05/17 11:35:36;;;;;;;28.95;6.32;;;;;;;36.98;24.66;97098.72;4890211;29;20464;-69
2022/05/17 11:38:38;;;;;;;25.55;6.95;;;;;;;36.80;30.01;97089.94;4900179;29;20127;-69
2022/05/17 11:41:40;;;;;;;38.70;7.18;;;;;;;36.67;28.10;97093.03;4910632;29;20084;-69
2022/05/17 11:44:27;;;;;;;40.10;8.02;;;;;;;36.63;30.39;97094.59;4904193;29;20047;-69
2022/05/17 11:47:36;;;;;;;28.98;6.53;;;;;;;36.51;29.33;97093.88;4891716;29;20575;-66
2022/05/17 11:50:21;;;;;;;46.20;7.85;;;;;;;36.41;30.19;97091.88;4890288;29;20063;-68
2022/05/17 11:53:33;;;;;;;40.00;6.72;;;;;;;36.49;27.39;97104.06;4888433;29;20052;-67
2022/05/17 11:56:19;;;;;;;34.90;6.20;;;;;;;36.51;27.29;97093.88;4889435;29;20041;-66
2022/05/17 11:59:17;;;;;;;37.15;6.97;;;;;;;36.39;29.76;97093.22;4537237;29;10000079;-66
2022/05/17 12:02:09;;;;;;;32.35;7.40;;;;;;;36.25;31.04;97097.28;4888615;29;20191;-67
2022/05/17 12:04:59;;;;;;;39.88;7.00;;;;;;;36.17;29.75;97092.31;4873342;29;20049;-67
2022/05/17 12:07:42;;;;;;;38.50;7.53;;;;;;;36.35;29.79;97087.53;4887399;29;20116;-66
2022/05/17 12:10:31;;;;;;;46.38;8.75;;;;;;;36.39;29.24;97093.22;4871706;29;20052;-66
2022/05/17 12:13:18;;;;;;;36.22;7.40;;;;;;;36.29;30.69;97087.72;4854398;29;20049;-67
2022/05/17 12:16:07;;;;;;;41.30;8.13;;;;;;;36.16;29.96;97093.41;4856352;29;20053;-67
2022/05/17 12:19:02;;;;;;;42.83;8.75;;;;;;;36.26;30.32;97088.19;4854599;29;20050;-68
2022/05/17 12:22:35;;;;;;;42.80;7.32;;;;;;;36.16;30.34;97099.56;4855443;29;20057;-65
2022/05/17 12:25:56;;;;;;;39.88;7.25;;;;;;;36.03;31.01;97094.56;4855568;29;20124;-66
2022/05/17 12:30:52;;;;;;;45.38;7.07;;;;;;;36.00;28.34;97105.78;4855259;29;20060;-67
2022/05/17 12:32:07;;;;;;;38.15;7.47;;;;;;;36.42;27.90;97106.13;4855972;29;20045;-66
2022/05/17 12:35:00;;;;;;;44.67;8.68;;;;;;;36.21;29.29;97107.72;4858599;29;20134;-65
2022/05/17 12:37:44;;;;;;;39.13;7.20;;;;;;;36.09;30.75;97101.63;4874054;29;20063;-67
2022/05/17 12:43:35;;;;;;;35.42;7.50;;;;;;;35.71;31.13;97107.75;4873986;29;20053;-66
2022/05/17 12:46:36;;;;;;;37.67;7.82;;;;;;;35.57;31.34;97119.84;4873306;29;20061;-67
2022/05/17 12:49:30;;;;;;;51.65;9.75;;;;;;;35.40;31.50;97116.31;4873223;29;20072;-67
2022/05/17 12:52:31;;;;;;;37.97;8.18;;;;;;;35.25;33.50;97119.56;4872818;29;20056;-67
2022/05/17 12:55:22;;;;;;;34.13;7.93;;;;;;;35.11;32.75;97121.72;4873353;29;20140;-64
2022/05/17 12:58:22;;;;;;;47.88;8.25;;;;;;;34.97;35.11;97128.38;4862141;29;20080;-66
2022/05/17 13:01:08;;;;;;;48.75;8.25;;;;;;;34.74;35.01;97123.94;4875803;29;20049;-67
2022/05/17 13:03:59;;;;;;;38.67;9.02;;;;;;;34.67;36.26;97133.94;4868776;29;20112;-68
2022/05/17 13:06:48;;;;;;;33.83;8.70;;;;;;;34.53;37.06;97133.38;4871171;29;20076;-66
2022/05/17 13:09:37;;;;;;;37.45;8.43;;;;;;;34.43;36.38;97137.69;4870034;29;20156;-68
2022/05/17 13:12:19;;;;;;;28.40;8.77;;;;;;;34.25;36.74;97141.31;4880480;29;20059;-68
2022/05/17 13:15:12;;;;;;;40.45;8.20;;;;;;;34.06;39.53;97147.81;4898908;29;20064;-67
2022/05/17 13:17:57;;;;;;;36.28;8.35;;;;;;;34.01;39.86;97148.50;4890005;29;20643;-68
2022/05/17 13:20:48;;;;;;;37.58;8.40;;;;;;;33.93;36.13;97154.19;4891491;29;20076;-68
2022/05/17 13:23:31;;;;;;;30.80;8.38;;;;;;;33.84;40.29;97154.78;4198433;29;10001216;-67
2022/05/17 13:26:28;;;;;;;46.28;8.13;;;;;;;33.74;38.31;97161.53;4886145;29;20080;-65
2022/05/17 13:29:19;;;;;;;39.53;9.38;;;;;;;33.70;39.18;97170.19;4891880;29;20131;-67
2022/05/17 13:32:23;;;;;;;39.92;9.45;;;;;;;33.60;39.57;97167.28;4889413;29;20048;-65
2022/05/17 13:35:14;;;;;;;39.95;7.82;;;;;;;33.49;41.52;97168.88;4886820;29;20036;-69